sensor_id;sensor_type;location;lat;lon;timestamp;pressure;altitude;pressure_sealevel;temperature;humidity
55038;BME280;40937;53.594;10.034;2022-07-06T00:00:45;102128.25;;;16.16;68.70
55038;BME280;40937;53.594;10.034;2022-07-06T00:03:11;102135.63;;;16.28;68.42
55038;BME280;40937;53.594;10.034;2022-07-06T00:05:38;102136.25;;;16.23;68.11
55038;BME280;40937;53.594;10.034;2022-07-06T00:08:05;102141.19;;;16.26;68.25
55038;BME280;40937;53.594;10.034;2022-07-06T00:10:33;102138.53;;;16.19;68.32
55038;BME280;40937;53.594;10.034;2022-07-06T00:12:59;102142.84;;;16.21;68.36
55038;BME280;40937;53.594;10.034;2022-07-06T00:15:26;102139.56;;;16.18;68.35
55038;BME280;40937;53.594;10.034;2022-07-06T00:17:52;102136.50;;;16.15;68.70
55038;BME280;40937;53.594;10.034;2022-07-06T00:20:19;102148.81;;;16.16;68.55
55038;BME280;40937;53.594;10.034;2022-07-06T00:22:46;102140.38;;;16.19;68.17
55038;BME280;40937;53.594;10.034;2022-07-06T00:25:12;102131.16;;;16.08;68.87
55038;BME280;40937;53.594;10.034;2022-07-06T00:27:40;102139.19;;;16.01;68.93
55038;BME280;40937;53.594;10.034;2022-07-06T00:30:08;102139.56;;;16.12;68.25
55038;BME280;40937;53.594;10.034;2022-07-06T00:32:35;102145.53;;;16.14;68.49
55038;BME280;40937;53.594;10.034;2022-07-06T00:35:01;102140.59;;;16.11;68.24
55038;BME280;40937;53.594;10.034;2022-07-06T00:37:28;102141.84;;;16.15;68.29
55038;BME280;40937;53.594;10.034;2022-07-06T00:39:55;102142.25;;;16.12;68.12
55038;BME280;40937;53.594;10.034;2022-07-06T00:42:21;102136.91;;;16.05;68.72
55038;BME280;40937;53.594;10.034;2022-07-06T00:44:51;102130.94;;;16.03;68.57
55038;BME280;40937;53.594;10.034;2022-07-06T00:47:17;102132.19;;;16.00;68.92
55038;BME280;40937;53.594;10.034;2022-07-06T00:49:44;102124.34;;;16.06;68.62
55038;BME280;40937;53.594;10.034;2022-07-06T00:52:28;102130.31;;;16.08;68.45
55038;BME280;40937;53.594;10.034;2022-07-06T00:54:55;102135.47;;;15.96;68.71
55038;BME280;40937;53.594;10.034;2022-07-06T00:57:21;102131.56;;;15.98;68.74
55038;BME280;40937;53.594;10.034;2022-07-06T00:59:48;102137.31;;;15.95;68.63
55038;BME280;40937;53.594;10.034;2022-07-06T01:02:16;102134.66;;;15.95;68.14
55038;BME280;40937;53.594;10.034;2022-07-06T01:04:43;102140.22;;;16.00;68.32
55038;BME280;40937;53.594;10.034;2022-07-06T01:07:10;102136.50;;;16.01;68.40
55038;BME280;40937;53.594;10.034;2022-07-06T01:09:36;102143.28;;;15.91;68.85
55038;BME280;40937;53.594;10.034;2022-07-06T01:12:04;102137.72;;;15.92;68.78
55038;BME280;40937;53.594;10.034;2022-07-06T01:14:31;102139.38;;;16.00;68.26
55038;BME280;40937;53.594;10.034;2022-07-06T01:16:59;102136.53;;;15.95;68.70
55038;BME280;40937;53.594;10.034;2022-07-06T01:19:27;102128.28;;;15.96;68.38
55038;BME280;40937;53.594;10.034;2022-07-06T01:21:54;102133.84;;;15.95;68.54
55038;BME280;40937;53.594;10.034;2022-07-06T01:24:21;102131.56;;;15.98;68.26
55038;BME280;40937;53.594;10.034;2022-07-06T01:26:48;102127.03;;;15.92;68.49
55038;BME280;40937;53.594;10.034;2022-07-06T01:29:15;102130.13;;;15.89;68.73
55038;BME280;40937;53.594;10.034;2022-07-06T01:31:46;102133.41;;;15.91;68.82
55038;BME280;40937;53.594;10.034;2022-07-06T01:34:14;102128.28;;;15.96;68.63
55038;BME280;40937;53.594;10.034;2022-07-06T01:36:42;102128.50;;;15.88;69.00
55038;BME280;40937;53.594;10.034;2022-07-06T01:39:11;102130.56;;;15.93;68.66
55038;BME280;40937;53.594;10.034;2022-07-06T01:41:38;102129.31;;;15.88;69.09
55038;BME280;40937;53.594;10.034;2022-07-06T01:44:05;102124.56;;;15.77;69.21
55038;BME280;40937;53.594;10.034;2022-07-06T01:46:32;102125.19;;;15.79;69.35
55038;BME280;40937;53.594;10.034;2022-07-06T01:48:59;102125.78;;;15.81;69.25
55038;BME280;40937;53.594;10.034;2022-07-06T01:51:26;102119.00;;;15.79;69.49
55038;BME280;40937;53.594;10.034;2022-07-06T01:53:53;102122.50;;;15.79;69.15
55038;BME280;40937;53.594;10.034;2022-07-06T01:56:22;102107.28;;;15.73;69.24
55038;BME280;40937;53.594;10.034;2022-07-06T01:58:52;102114.69;;;15.78;69.31
55038;BME280;40937;53.594;10.034;2022-07-06T02:01:21;102124.97;;;15.74;69.41
55038;BME280;40937;53.594;10.034;2022-07-06T02:03:47;102118.19;;;15.78;69.27
55038;BME280;40937;53.594;10.034;2022-07-06T02:06:14;102122.72;;;15.71;69.16
55038;BME280;40937;53.594;10.034;2022-07-06T02:08:42;102128.03;;;15.78;69.37
55038;BME280;40937;53.594;10.034;2022-07-06T02:11:09;102123.53;;;15.78;69.48
55038;BME280;40937;53.594;10.034;2022-07-06T02:13:40;102124.75;;;15.76;69.42
55038;BME280;40937;53.594;10.034;2022-07-06T02:16:10;102119.00;;;15.65;70.23
55038;BME280;40937;53.594;10.034;2022-07-06T02:18:36;102128.06;;;15.71;69.53
55038;BME280;40937;53.594;10.034;2022-07-06T02:21:03;102137.53;;;15.73;69.76
55038;BME280;40937;53.594;10.034;2022-07-06T02:23:30;102141.81;;;15.74;69.75
55038;BME280;40937;53.594;10.034;2022-07-06T02:25:57;102131.97;;;15.75;70.17
55038;BME280;40937;53.594;10.034;2022-07-06T02:28:25;102129.28;;;15.68;70.54
55038;BME280;40937;53.594;10.034;2022-07-06T02:30:53;102129.28;;;15.62;70.67
55038;BME280;40937;53.594;10.034;2022-07-06T02:33:20;102131.97;;;15.68;70.63
55038;BME280;40937;53.594;10.034;2022-07-06T02:35:47;102127.03;;;15.65;70.84
55038;BME280;40937;53.594;10.034;2022-07-06T02:38:14;102134.00;;;15.60;71.10
55038;BME280;40937;53.594;10.034;2022-07-06T02:40:41;102131.97;;;15.62;71.20
55038;BME280;40937;53.594;10.034;2022-07-06T02:43:07;102127.66;;;15.61;71.31
55038;BME280;40937;53.594;10.034;2022-07-06T02:45:35;102132.16;;;15.60;71.46
55038;BME280;40937;53.594;10.034;2022-07-06T02:48:04;102120.44;;;15.61;71.67
55038;BME280;40937;53.594;10.034;2022-07-06T02:50:33;102127.25;;;15.64;71.51
55038;BME280;40937;53.594;10.034;2022-07-06T02:52:59;102114.06;;;15.49;72.18
55038;BME280;40937;53.594;10.034;2022-07-06T02:55:27;102109.34;;;15.51;71.92
55038;BME280;40937;53.594;10.034;2022-07-06T02:57:54;102112.03;;;15.51;72.29
55038;BME280;40937;53.594;10.034;2022-07-06T03:00:22;102113.03;;;15.56;71.43
55038;BME280;40937;53.594;10.034;2022-07-06T03:02:50;102115.53;;;15.51;71.66
55038;BME280;40937;53.594;10.034;2022-07-06T03:05:18;102116.34;;;15.45;71.93
55038;BME280;40937;53.594;10.034;2022-07-06T03:07:45;102107.09;;;15.48;71.42
55038;BME280;40937;53.594;10.034;2022-07-06T03:10:13;102118.19;;;15.38;72.04
55038;BME280;40937;53.594;10.034;2022-07-06T03:12:40;102121.69;;;15.45;71.15
55038;BME280;40937;53.594;10.034;2022-07-06T03:15:07;102119.00;;;15.38;71.11
55038;BME280;40937;53.594;10.034;2022-07-06T03:17:37;102130.31;;;15.40;71.03
55038;BME280;40937;53.594;10.034;2022-07-06T03:20:05;102124.34;;;15.38;71.16
55038;BME280;40937;53.594;10.034;2022-07-06T03:22:33;102116.94;;;15.40;70.90
55038;BME280;40937;53.594;10.034;2022-07-06T03:25:01;102126.78;;;15.40;71.27
55038;BME280;40937;53.594;10.034;2022-07-06T03:27:29;102125.16;;;15.46;71.27
55038;BME280;40937;53.594;10.034;2022-07-06T03:29:55;102125.16;;;15.39;71.65
55038;BME280;40937;53.594;10.034;2022-07-06T03:32:22;102127.63;;;15.47;71.57
55038;BME280;40937;53.594;10.034;2022-07-06T03:34:50;102129.28;;;15.35;72.69
55038;BME280;40937;53.594;10.034;2022-07-06T03:37:17;102121.88;;;15.30;73.20
55038;BME280;40937;53.594;10.034;2022-07-06T03:39:45;102124.97;;;15.40;72.80
55038;BME280;40937;53.594;10.034;2022-07-06T03:42:12;102128.03;;;15.37;73.33
55038;BME280;40937;53.594;10.034;2022-07-06T03:44:39;102125.78;;;15.48;73.11
55038;BME280;40937;53.594;10.034;2022-07-06T03:47:07;102120.66;;;15.39;73.53
55038;BME280;40937;53.594;10.034;2022-07-06T03:49:34;102131.72;;;15.36;74.02
55038;BME280;40937;53.594;10.034;2022-07-06T03:52:02;102123.94;;;15.35;73.71
55038;BME280;40937;53.594;10.034;2022-07-06T03:54:36;102130.50;;;15.46;73.42
55038;BME280;40937;53.594;10.034;2022-07-06T03:57:06;102126.81;;;15.47;73.07
55038;BME280;40937;53.594;10.034;2022-07-06T03:59:33;102130.50;;;15.39;73.25
55038;BME280;40937;53.594;10.034;2022-07-06T04:02:00;102129.69;;;15.45;72.70
55038;BME280;40937;53.594;10.034;2022-07-06T04:04:26;102134.41;;;15.43;72.65
55038;BME280;40937;53.594;10.034;2022-07-06T04:06:53;102144.06;;;15.37;72.58
55038;BME280;40937;53.594;10.034;2022-07-06T04:09:20;102147.97;;;15.41;72.33
55038;BME280;40937;53.594;10.034;2022-07-06T04:11:48;102149.78;;;15.27;72.84
55038;BME280;40937;53.594;10.034;2022-07-06T04:14:16;102152.88;;;15.31;73.14
55038;BME280;40937;53.594;10.034;2022-07-06T04:16:42;102141.78;;;15.34;73.23
55038;BME280;40937;53.594;10.034;2022-07-06T04:19:09;102144.25;;;15.29;73.64
55038;BME280;40937;53.594;10.034;2022-07-06T04:21:36;102136.44;;;15.27;73.44
55038;BME280;40937;53.594;10.034;2022-07-06T04:24:03;102133.56;;;15.29;73.01
55038;BME280;40937;53.594;10.034;2022-07-06T04:26:32;102132.13;;;15.33;73.06
55038;BME280;40937;53.594;10.034;2022-07-06T04:28:58;102137.47;;;15.33;72.32
55038;BME280;40937;53.594;10.034;2022-07-06T04:31:29;102128.66;;;15.33;71.55
55038;BME280;40937;53.594;10.034;2022-07-06T04:33:56;102128.84;;;15.31;71.57
55038;BME280;40937;53.594;10.034;2022-07-06T04:36:24;102130.91;;;15.29;71.65
55038;BME280;40937;53.594;10.034;2022-07-06T04:38:51;102126.16;;;15.31;71.55
55038;BME280;40937;53.594;10.034;2022-07-06T04:41:18;102125.34;;;15.31;71.25
55038;BME280;40937;53.594;10.034;2022-07-06T04:43:45;102126.59;;;15.41;70.92
55038;BME280;40937;53.594;10.034;2022-07-06T04:46:15;102120.41;;;15.34;71.14
55038;BME280;40937;53.594;10.034;2022-07-06T04:48:46;102123.31;;;15.39;70.98
55038;BME280;40937;53.594;10.034;2022-07-06T04:51:19;102130.91;;;15.36;71.49
55038;BME280;40937;53.594;10.034;2022-07-06T04:53:46;102132.56;;;15.37;71.52
55038;BME280;40937;53.594;10.034;2022-07-06T04:56:14;102129.28;;;15.35;71.51
55038;BME280;40937;53.594;10.034;2022-07-06T04:58:41;102125.16;;;15.39;71.51
55038;BME280;40937;53.594;10.034;2022-07-06T05:01:12;102125.97;;;15.39;71.58
55038;BME280;40937;53.594;10.034;2022-07-06T05:03:39;102132.34;;;15.38;71.86
55038;BME280;40937;53.594;10.034;2022-07-06T05:06:08;102134.41;;;15.36;71.76
55038;BME280;40937;53.594;10.034;2022-07-06T05:08:35;102137.06;;;15.36;72.09
55038;BME280;40937;53.594;10.034;2022-07-06T05:11:03;102132.97;;;15.47;71.81
55038;BME280;40937;53.594;10.034;2022-07-06T05:13:30;102135.66;;;15.47;72.36
55038;BME280;40937;53.594;10.034;2022-07-06T05:15:57;102128.88;;;15.45;72.88
55038;BME280;40937;53.594;10.034;2022-07-06T05:18:25;102127.00;;;15.38;72.05
55038;BME280;40937;53.594;10.034;2022-07-06T05:20:52;102134.41;;;15.43;72.18
55038;BME280;40937;53.594;10.034;2022-07-06T05:23:20;102130.94;;;15.49;71.18
55038;BME280;40937;53.594;10.034;2022-07-06T05:25:47;102140.59;;;15.50;71.38
55038;BME280;40937;53.594;10.034;2022-07-06T05:28:14;102130.09;;;15.49;70.96
55038;BME280;40937;53.594;10.034;2022-07-06T05:30:41;102135.44;;;15.49;70.65
55038;BME280;40937;53.594;10.034;2022-07-06T05:33:09;102129.06;;;15.43;70.91
55038;BME280;40937;53.594;10.034;2022-07-06T05:35:36;102131.53;;;15.45;70.91
55038;BME280;40937;53.594;10.034;2022-07-06T05:38:04;102131.34;;;15.46;70.95
55038;BME280;40937;53.594;10.034;2022-07-06T05:40:32;102130.50;;;15.46;71.06
55038;BME280;40937;53.594;10.034;2022-07-06T05:42:59;102138.72;;;15.51;71.07
55038;BME280;40937;53.594;10.034;2022-07-06T05:45:26;102135.66;;;15.54;71.33
55038;BME280;40937;53.594;10.034;2022-07-06T05:47:55;102144.91;;;15.58;71.69
55038;BME280;40937;53.594;10.034;2022-07-06T05:50:39;102145.72;;;15.65;72.00
55038;BME280;40937;53.594;10.034;2022-07-06T05:53:06;102146.97;;;15.56;72.28
55038;BME280;40937;53.594;10.034;2022-07-06T05:55:35;102154.97;;;15.63;72.04
55038;BME280;40937;53.594;10.034;2022-07-06T05:58:02;102151.28;;;15.57;73.15
55038;BME280;40937;53.594;10.034;2022-07-06T06:00:31;102153.75;;;15.65;73.16
55038;BME280;40937;53.594;10.034;2022-07-06T06:03:03;102147.38;;;15.60;74.04
55038;BME280;40937;53.594;10.034;2022-07-06T06:05:30;102151.47;;;15.55;75.15
55038;BME280;40937;53.594;10.034;2022-07-06T06:08:03;102154.75;;;15.51;75.39
55038;BME280;40937;53.594;10.034;2022-07-06T06:10:29;102164.63;;;15.57;75.26
55038;BME280;40937;53.594;10.034;2022-07-06T06:13:00;102167.94;;;15.59;75.95
55038;BME280;40937;53.594;10.034;2022-07-06T06:15:27;102158.84;;;15.47;75.49
55038;BME280;40937;53.594;10.034;2022-07-06T06:17:54;102162.75;;;15.44;75.21
55038;BME280;40937;53.594;10.034;2022-07-06T06:20:20;102163.78;;;15.43;75.26
55038;BME280;40937;53.594;10.034;2022-07-06T06:22:48;102155.78;;;15.43;75.73
55038;BME280;40937;53.594;10.034;2022-07-06T06:25:16;102153.31;;;15.48;76.16
55038;BME280;40937;53.594;10.034;2022-07-06T06:27:43;102163.38;;;15.53;75.76
55038;BME280;40937;53.594;10.034;2022-07-06T06:30:12;102169.75;;;15.52;75.48
55038;BME280;40937;53.594;10.034;2022-07-06T06:32:39;102170.38;;;15.54;74.58
55038;BME280;40937;53.594;10.034;2022-07-06T06:35:07;102159.28;;;15.50;74.16
55038;BME280;40937;53.594;10.034;2022-07-06T06:37:34;102164.19;;;15.60;74.08
55038;BME280;40937;53.594;10.034;2022-07-06T06:40:01;102160.72;;;15.53;74.25
55038;BME280;40937;53.594;10.034;2022-07-06T06:42:28;102160.50;;;15.61;74.47
55038;BME280;40937;53.594;10.034;2022-07-06T06:44:56;102167.50;;;15.55;74.36
55038;BME280;40937;53.594;10.034;2022-07-06T06:47:24;102169.53;;;15.53;73.95
55038;BME280;40937;53.594;10.034;2022-07-06T06:49:50;102172.19;;;15.47;74.06
55038;BME280;40937;53.594;10.034;2022-07-06T06:52:17;102177.56;;;15.53;73.15
55038;BME280;40937;53.594;10.034;2022-07-06T06:54:44;102179.03;;;15.63;72.65
55038;BME280;40937;53.594;10.034;2022-07-06T06:57:10;102174.69;;;15.55;73.08
55038;BME280;40937;53.594;10.034;2022-07-06T06:59:37;102181.69;;;15.63;72.70
55038;BME280;40937;53.594;10.034;2022-07-06T07:02:04;102182.31;;;15.65;72.24
55038;BME280;40937;53.594;10.034;2022-07-06T07:14:54;102189.91;;;15.74;72.25
55038;BME280;40937;53.594;10.034;2022-07-06T07:17:20;102188.47;;;15.79;71.80
55038;BME280;40937;53.594;10.034;2022-07-06T07:19:47;102198.97;;;15.80;72.74
55038;BME280;40937;53.594;10.034;2022-07-06T07:22:13;102187.22;;;15.74;72.62
55038;BME280;40937;53.594;10.034;2022-07-06T07:24:40;102188.88;;;15.82;72.35
55038;BME280;40937;53.594;10.034;2022-07-06T07:27:07;102197.53;;;15.84;72.09
55038;BME280;40937;53.594;10.034;2022-07-06T07:29:33;102192.03;;;15.86;72.10
55038;BME280;40937;53.594;10.034;2022-07-06T07:32:02;102196.53;;;15.85;71.99
55038;BME280;40937;53.594;10.034;2022-07-06T07:34:28;102203.53;;;15.93;71.63
55038;BME280;40937;53.594;10.034;2022-07-06T07:36:55;102204.94;;;15.96;71.19
55038;BME280;40937;53.594;10.034;2022-07-06T07:39:22;102199.41;;;15.91;71.49
55038;BME280;40937;53.594;10.034;2022-07-06T07:41:48;102204.94;;;15.89;70.21
55038;BME280;40937;53.594;10.034;2022-07-06T07:44:15;102211.53;;;15.93;69.53
55038;BME280;40937;53.594;10.034;2022-07-06T07:46:42;102199.81;;;15.94;68.05
55038;BME280;40937;53.594;10.034;2022-07-06T07:49:10;102205.38;;;15.93;68.00
55038;BME280;40937;53.594;10.034;2022-07-06T07:51:38;102215.66;;;15.96;68.09
55038;BME280;40937;53.594;10.034;2022-07-06T07:54:05;102207.44;;;15.97;67.94
55038;BME280;40937;53.594;10.034;2022-07-06T07:56:31;102206.00;;;15.95;66.98
55038;BME280;40937;53.594;10.034;2022-07-06T07:58:58;102199.59;;;15.96;66.82
55038;BME280;40937;53.594;10.034;2022-07-06T08:01:29;102211.34;;;15.95;66.56
55038;BME280;40937;53.594;10.034;2022-07-06T08:09:13;102206.19;;;16.00;66.26
55038;BME280;40937;53.594;10.034;2022-07-06T08:11:41;102206.41;;;16.05;66.59
55038;BME280;40937;53.594;10.034;2022-07-06T08:14:07;102200.03;;;16.06;66.71
55038;BME280;40937;53.594;10.034;2022-07-06T08:16:34;102203.91;;;16.10;66.68
55038;BME280;40937;53.594;10.034;2022-07-06T08:19:01;102214.63;;;16.17;66.28
55038;BME280;40937;53.594;10.034;2022-07-06T08:21:27;102212.56;;;16.19;66.46
55038;BME280;40937;53.594;10.034;2022-07-06T08:24:07;102211.97;;;16.24;66.58
55038;BME280;40937;53.594;10.034;2022-07-06T08:26:35;102209.47;;;16.29;66.19
55038;BME280;40937;53.594;10.034;2022-07-06T08:29:02;102209.06;;;16.32;65.80
55038;BME280;40937;53.594;10.034;2022-07-06T08:31:28;102206.59;;;16.37;64.61
55038;BME280;40937;53.594;10.034;2022-07-06T08:37:09;102220.16;;;16.42;65.20
55038;BME280;40937;53.594;10.034;2022-07-06T08:40:13;102211.72;;;16.39;66.01
55038;BME280;40937;53.594;10.034;2022-07-06T08:42:42;102213.56;;;16.38;66.04
55038;BME280;40937;53.594;10.034;2022-07-06T08:45:09;102214.41;;;16.39;66.76
55038;BME280;40937;53.594;10.034;2022-07-06T08:47:36;102208.03;;;16.40;67.03
55038;BME280;40937;53.594;10.034;2022-07-06T08:50:04;102205.53;;;16.31;67.14
55038;BME280;40937;53.594;10.034;2022-07-06T08:52:32;102212.53;;;16.32;67.30
55038;BME280;40937;53.594;10.034;2022-07-06T08:54:59;102211.31;;;16.35;67.47
55038;BME280;40937;53.594;10.034;2022-07-06T08:57:26;102219.34;;;16.35;67.92
55038;BME280;40937;53.594;10.034;2022-07-06T08:59:55;102232.91;;;16.33;68.35
55038;BME280;40937;53.594;10.034;2022-07-06T09:02:24;102219.97;;;16.44;68.81
55038;BME280;40937;53.594;10.034;2022-07-06T09:04:54;102230.22;;;16.40;70.19
55038;BME280;40937;53.594;10.034;2022-07-06T09:07:21;102235.81;;;16.25;71.50
55038;BME280;40937;53.594;10.034;2022-07-06T09:09:49;102235.81;;;16.32;71.34
55038;BME280;40937;53.594;10.034;2022-07-06T09:12:18;102236.44;;;16.27;70.72
55038;BME280;40937;53.594;10.034;2022-07-06T09:14:44;102234.56;;;16.34;70.52
55038;BME280;40937;53.594;10.034;2022-07-06T09:17:12;102229.44;;;16.33;70.12
55038;BME280;40937;53.594;10.034;2022-07-06T09:19:40;102238.69;;;16.30;70.28
55038;BME280;40937;53.594;10.034;2022-07-06T09:22:10;102237.63;;;16.38;68.99
55038;BME280;40937;53.594;10.034;2022-07-06T09:24:50;102238.25;;;16.47;68.72
55038;BME280;40937;53.594;10.034;2022-07-06T09:27:17;102236.59;;;16.53;64.54
55038;BME280;40937;53.594;10.034;2022-07-06T09:29:44;102245.06;;;16.49;63.96
55038;BME280;40937;53.594;10.034;2022-07-06T09:32:19;102235.16;;;16.50;63.83
55038;BME280;40937;53.594;10.034;2022-07-06T09:34:47;102243.41;;;16.42;63.99
55038;BME280;40937;53.594;10.034;2022-07-06T09:37:14;102241.94;;;16.39;63.75
55038;BME280;40937;53.594;10.034;2022-07-06T09:39:43;102240.09;;;16.46;63.96
55038;BME280;40937;53.594;10.034;2022-07-06T09:42:10;102246.91;;;16.42;64.22
55038;BME280;40937;53.594;10.034;2022-07-06T09:44:38;102238.47;;;16.45;64.48
55038;BME280;40937;53.594;10.034;2022-07-06T09:47:07;102230.84;;;16.49;63.73
55038;BME280;40937;53.594;10.034;2022-07-06T09:49:36;102228.16;;;16.49;63.83
55038;BME280;40937;53.594;10.034;2022-07-06T09:52:05;102228.78;;;16.51;63.80
55038;BME280;40937;53.594;10.034;2022-07-06T09:54:32;102235.38;;;16.55;63.44
55038;BME280;40937;53.594;10.034;2022-07-06T09:56:59;102234.50;;;16.61;63.54
55038;BME280;40937;53.594;10.034;2022-07-06T09:59:27;102226.47;;;16.68;62.44
55038;BME280;40937;53.594;10.034;2022-07-06T10:01:56;102226.25;;;16.76;62.11
55038;BME280;40937;53.594;10.034;2022-07-06T10:07:06;102234.63;;;16.93;60.41
55038;BME280;40937;53.594;10.034;2022-07-06T10:09:34;102235.25;;;17.02;60.80
55038;BME280;40937;53.594;10.034;2022-07-06T10:12:03;102230.28;;;17.06;61.02
55038;BME280;40937;53.594;10.034;2022-07-06T10:14:33;102232.31;;;17.10;59.67
55038;BME280;40937;53.594;10.034;2022-07-06T10:17:02;102231.53;;;17.03;60.33
55038;BME280;40937;53.594;10.034;2022-07-06T10:19:29;102237.50;;;17.05;61.35
55038;BME280;40937;53.594;10.034;2022-07-06T10:21:59;102243.94;;;16.98;62.74
55038;BME280;40937;53.594;10.034;2022-07-06T10:46:59;102242.41;;;16.29;63.51
55038;BME280;40937;53.594;10.034;2022-07-06T10:52:59;102238.88;;;16.29;63.55
55038;BME280;40937;53.594;10.034;2022-07-06T10:55:33;102231.69;;;16.29;64.36
55038;BME280;40937;53.594;10.034;2022-07-06T10:58:05;102235.41;;;16.22;64.65
55038;BME280;40937;53.594;10.034;2022-07-06T11:00:51;102229.63;;;16.18;64.74
55038;BME280;40937;53.594;10.034;2022-07-06T11:03:41;102227.38;;;16.15;64.74
55038;BME280;40937;53.594;10.034;2022-07-06T11:06:14;102226.34;;;16.23;64.67
55038;BME280;40937;53.594;10.034;2022-07-06T11:08:46;102223.88;;;16.21;64.75
55038;BME280;40937;53.594;10.034;2022-07-06T11:11:14;102223.25;;;16.26;64.60
55038;BME280;40937;53.594;10.034;2022-07-06T11:13:43;102214.19;;;16.33;64.50
55038;BME280;40937;53.594;10.034;2022-07-06T11:16:14;102211.72;;;16.39;64.19
55038;BME280;40937;53.594;10.034;2022-07-06T11:18:46;102224.88;;;16.40;63.92
55038;BME280;40937;53.594;10.034;2022-07-06T11:21:18;102216.25;;;16.45;64.44
55038;BME280;40937;53.594;10.034;2022-07-06T11:23:46;102217.28;;;16.51;64.63
55038;BME280;40937;53.594;10.034;2022-07-06T11:26:14;102212.31;;;16.61;64.89
55038;BME280;40937;53.594;10.034;2022-07-06T11:28:41;102213.91;;;16.75;64.64
55038;BME280;40937;53.594;10.034;2022-07-06T11:31:08;102203.78;;;16.84;64.38
55038;BME280;40937;53.594;10.034;2022-07-06T11:33:36;102212.00;;;16.96;64.47
55038;BME280;40937;53.594;10.034;2022-07-06T11:36:15;102199.56;;;17.15;64.27
55038;BME280;40937;53.594;10.034;2022-07-06T11:38:43;102196.59;;;17.30;63.56
55038;BME280;40937;53.594;10.034;2022-07-06T11:41:10;102204.81;;;17.35;63.47
55038;BME280;40937;53.594;10.034;2022-07-06T11:43:39;102208.25;;;17.43;62.52
55038;BME280;40937;53.594;10.034;2022-07-06T11:46:19;102195.13;;;17.34;62.93
55038;BME280;40937;53.594;10.034;2022-07-06T11:48:50;102202.75;;;17.37;63.54
55038;BME280;40937;53.594;10.034;2022-07-06T11:51:21;102204.38;;;17.38;64.25
55038;BME280;40937;53.594;10.034;2022-07-06T11:53:50;102197.97;;;17.39;64.74
55038;BME280;40937;53.594;10.034;2022-07-06T11:56:18;102200.66;;;17.39;63.91
55038;BME280;40937;53.594;10.034;2022-07-06T11:58:48;102198.38;;;17.43;62.46
55038;BME280;40937;53.594;10.034;2022-07-06T12:01:15;102198.72;;;17.53;61.52
55038;BME280;40937;53.594;10.034;2022-07-06T12:03:42;102196.63;;;17.62;61.32
55038;BME280;40937;53.594;10.034;2022-07-06T12:06:14;102179.41;;;17.77;60.31
55038;BME280;40937;53.594;10.034;2022-07-06T12:08:44;102179.47;;;17.89;59.63
55038;BME280;40937;53.594;10.034;2022-07-06T12:11:17;102184.41;;;17.92;57.33
55038;BME280;40937;53.594;10.034;2022-07-06T12:13:44;102169.94;;;17.99;56.78
55038;BME280;40937;53.594;10.034;2022-07-06T12:16:12;102175.25;;;18.06;57.49
55038;BME280;40937;53.594;10.034;2022-07-06T12:18:41;102157.16;;;18.20;57.21
55038;BME280;40937;53.594;10.034;2022-07-06T12:21:09;102164.84;;;18.35;56.64
55038;BME280;40937;53.594;10.034;2022-07-06T12:23:40;102154.88;;;18.42;55.58
55038;BME280;40937;53.594;10.034;2022-07-06T12:26:10;102164.41;;;18.57;54.20
55038;BME280;40937;53.594;10.034;2022-07-06T12:28:36;102161.25;;;18.60;55.15
55038;BME280;40937;53.594;10.034;2022-07-06T12:31:03;102161.50;;;18.77;55.38
55038;BME280;40937;53.594;10.034;2022-07-06T12:33:30;102166.44;;;18.92;52.00
55038;BME280;40937;53.594;10.034;2022-07-06T12:36:07;102152.81;;;18.93;49.92
55038;BME280;40937;53.594;10.034;2022-07-06T12:38:34;102163.84;;;18.85;48.98
55038;BME280;40937;53.594;10.034;2022-07-06T12:41:01;102161.69;;;18.75;49.71
55038;BME280;40937;53.594;10.034;2022-07-06T12:43:36;102159.56;;;18.66;50.78
55038;BME280;40937;53.594;10.034;2022-07-06T12:46:28;102163.94;;;18.60;52.03
55038;BME280;40937;53.594;10.034;2022-07-06T12:48:57;102163.38;;;18.58;52.95
55038;BME280;40937;53.594;10.034;2022-07-06T12:51:24;102163.91;;;18.67;52.83
55038;BME280;40937;53.594;10.034;2022-07-06T12:53:51;102161.13;;;18.73;52.02
55038;BME280;40937;53.594;10.034;2022-07-06T12:56:18;102163.50;;;18.82;51.40
55038;BME280;40937;53.594;10.034;2022-07-06T12:59:00;102158.56;;;18.78;51.91
55038;BME280;40937;53.594;10.034;2022-07-06T13:01:27;102162.00;;;18.86;51.83
55038;BME280;40937;53.594;10.034;2022-07-06T13:03:54;102159.31;;;18.86;51.61
55038;BME280;40937;53.594;10.034;2022-07-06T13:06:32;102152.59;;;18.76;52.08
55038;BME280;40937;53.594;10.034;2022-07-06T13:08:59;102147.63;;;18.80;52.16
55038;BME280;40937;53.594;10.034;2022-07-06T13:11:26;102158.13;;;18.82;52.59
55038;BME280;40937;53.594;10.034;2022-07-06T13:13:53;102149.22;;;19.00;52.58
55038;BME280;40937;53.594;10.034;2022-07-06T13:16:21;102154.41;;;19.13;52.15
55038;BME280;40937;53.594;10.034;2022-07-06T13:18:49;102158.66;;;19.21;52.06
55038;BME280;40937;53.594;10.034;2022-07-06T13:21:16;102147.00;;;19.27;51.50
55038;BME280;40937;53.594;10.034;2022-07-06T13:23:43;102150.13;;;19.24;51.57
55038;BME280;40937;53.594;10.034;2022-07-06T13:26:09;102148.75;;;19.33;51.26
55038;BME280;40937;53.594;10.034;2022-07-06T13:28:36;102150.31;;;19.53;50.88
55038;BME280;40937;53.594;10.034;2022-07-06T13:31:03;102140.06;;;19.62;51.36
55038;BME280;40937;53.594;10.034;2022-07-06T13:33:31;102139.72;;;19.82;50.03